createdAt,value
2023-04-29T00:00:34.345Z,94954.00
2023-04-29T00:01:34.391Z,94956.00
2023-04-29T00:02:34.516Z,94958.00
2023-04-29T00:03:34.741Z,94960.00
2023-04-29T00:04:34.632Z,94960.00
2023-04-29T00:05:34.683Z,94960.00
2023-04-29T00:06:34.587Z,94958.00
2023-04-29T00:07:34.671Z,94956.00
2023-04-29T00:08:34.704Z,94952.00
2023-04-29T00:09:34.744Z,94950.00
2023-04-29T00:10:34.748Z,94950.00
2023-04-29T00:11:34.792Z,94952.00
2023-04-29T00:12:34.838Z,94952.00
2023-04-29T00:13:34.880Z,94952.00
2023-04-29T00:14:34.921Z,94952.00
2023-04-29T00:15:34.945Z,94954.00
2023-04-29T00:16:35.004Z,94956.00
2023-04-29T00:17:35.116Z,94956.00
2023-04-29T00:18:35.128Z,94954.00
2023-04-29T00:19:35.213Z,94950.00
2023-04-29T00:20:35.232Z,94946.00
2023-04-29T00:21:35.302Z,94943.00
2023-04-29T00:22:35.412Z,94941.00
2023-04-29T00:23:35.429Z,94943.00
2023-04-29T00:24:35.462Z,94941.00
2023-04-29T00:25:35.494Z,94943.00
2023-04-29T00:26:35.507Z,94948.00
2023-04-29T00:27:35.568Z,94954.00
2023-04-29T00:28:35.568Z,94954.00
2023-04-29T00:29:35.618Z,94960.00
2023-04-29T00:30:36.525Z,94958.00
2023-04-29T00:31:35.758Z,94960.00
2023-04-29T00:32:35.759Z,94962.00
2023-04-29T00:33:35.753Z,94964.00
2023-04-29T00:34:35.803Z,94968.00
2023-04-29T00:35:35.848Z,94968.00
2023-04-29T00:36:35.847Z,94968.00
2023-04-29T00:37:35.885Z,94964.00
2023-04-29T00:38:35.940Z,94958.00
2023-04-29T00:39:36.034Z,94954.00
2023-04-29T00:40:35.997Z,94956.00
2023-04-29T00:41:36.085Z,94958.00
2023-04-29T00:42:36.103Z,94962.00
2023-04-29T00:43:36.117Z,94964.00
2023-04-29T00:44:36.154Z,94964.00
2023-04-29T00:45:36.147Z,94960.00
2023-04-29T00:46:36.194Z,94960.00
2023-04-29T00:47:36.239Z,94956.00
2023-04-29T00:48:36.230Z,94952.00
2023-04-29T00:49:36.325Z,94950.00
2023-04-29T00:50:36.299Z,94950.00
2023-04-29T00:51:36.351Z,94950.00
2023-04-29T00:52:36.352Z,94952.00
2023-04-29T00:53:36.469Z,94952.00
2023-04-29T00:54:36.486Z,94952.00
2023-04-29T00:55:36.498Z,94950.00
2023-04-29T00:56:36.578Z,94950.00
2023-04-29T00:57:36.577Z,94948.00
2023-04-29T00:58:36.622Z,94948.00
2023-04-29T00:59:36.682Z,94950.00
2023-04-29T01:00:36.718Z,94952.00
2023-04-29T01:01:36.798Z,94954.00
2023-04-29T01:02:36.817Z,94952.00
2023-04-29T01:03:36.985Z,94952.00
2023-04-29T01:04:36.919Z,94954.00
2023-04-29T01:05:36.950Z,94958.00
2023-04-29T01:06:36.949Z,94956.00
2023-04-29T01:07:36.994Z,94958.00
2023-04-29T01:08:37.037Z,94956.00
2023-04-29T01:09:37.124Z,94952.00
2023-04-29T01:10:37.142Z,94948.00
2023-04-29T01:11:37.215Z,94946.00
2023-04-29T01:12:37.222Z,94939.00
2023-04-29T01:13:37.247Z,94937.00
2023-04-29T01:14:37.299Z,94933.00
2023-04-29T01:15:37.335Z,94925.00
2023-04-29T01:16:37.554Z,94925.00
2023-04-29T01:17:37.399Z,94927.00
2023-04-29T01:18:37.445Z,94927.00
2023-04-29T01:19:37.490Z,94925.00
2023-04-29T01:20:37.504Z,94923.00
2023-04-29T01:21:37.520Z,94923.00
2023-04-29T01:22:37.507Z,94927.00
2023-04-29T01:23:37.544Z,94931.00
2023-04-29T01:24:37.573Z,94935.00
2023-04-29T01:25:37.582Z,94935.00
2023-04-29T01:26:37.594Z,94935.00
2023-04-29T01:27:37.616Z,94935.00
2023-04-29T01:28:37.633Z,94931.00
2023-04-29T01:29:37.663Z,94927.00
2023-04-29T01:30:37.683Z,94931.00
2023-04-29T01:31:37.736Z,94931.00
2023-04-29T01:32:37.804Z,94931.00
2023-04-29T01:33:37.778Z,94929.00
2023-04-29T01:34:37.789Z,94927.00
2023-04-29T01:35:37.814Z,94923.00
2023-04-29T01:36:37.851Z,94915.00
2023-04-29T01:37:37.904Z,94911.00
2023-04-29T01:38:37.937Z,94905.00
2023-04-29T01:39:37.984Z,94905.00
2023-04-29T01:40:38.029Z,94907.00
2023-04-29T01:41:38.058Z,94907.00
2023-04-29T01:42:38.131Z,94909.00
2023-04-29T01:43:38.179Z,94907.00
2023-04-29T01:44:38.231Z,94909.00
2023-04-29T01:45:38.243Z,94907.00
2023-04-29T01:46:38.273Z,94907.00
2023-04-29T01:47:38.363Z,94905.00
2023-04-29T01:48:38.366Z,94905.00
2023-04-29T01:49:38.416Z,94903.00
2023-04-29T01:50:38.416Z,94907.00
2023-04-29T01:51:38.523Z,94905.00
2023-04-29T01:52:38.521Z,94903.00
2023-04-29T01:53:38.552Z,94903.00
2023-04-29T01:54:38.602Z,94901.00
2023-04-29T01:55:38.618Z,94901.00
2023-04-29T01:56:38.622Z,94899.00
2023-04-29T01:57:38.705Z,94890.00
2023-04-29T01:58:38.770Z,94903.00
2023-04-29T01:59:38.803Z,94901.00
2023-04-29T02:00:38.906Z,94907.00
2023-04-29T02:01:38.886Z,94909.00
2023-04-29T02:02:38.967Z,94905.00
2023-04-29T02:03:39.184Z,94909.00
2023-04-29T02:04:39.067Z,94909.00
2023-04-29T02:05:39.024Z,94907.00
2023-04-29T02:06:39.053Z,94907.00
2023-04-29T02:07:39.114Z,94905.00
2023-04-29T02:08:39.136Z,94905.00
2023-04-29T02:09:39.210Z,94901.00
2023-04-29T02:10:39.208Z,94892.00
2023-04-29T02:11:39.252Z,94888.00
2023-04-29T02:12:39.238Z,94890.00
2023-04-29T02:13:39.316Z,94884.00
2023-04-29T02:14:39.390Z,94886.00
2023-04-29T02:15:39.423Z,94892.00
2023-04-29T02:16:39.495Z,94886.00
2023-04-29T02:17:39.528Z,94884.00
2023-04-29T02:18:39.574Z,94882.00
2023-04-29T02:19:39.589Z,94880.00
2023-04-29T02:20:39.621Z,94878.00
2023-04-29T02:21:39.674Z,94874.00
2023-04-29T02:22:39.710Z,94870.00
2023-04-29T02:23:39.715Z,94868.00
2023-04-29T02:24:39.786Z,94870.00
2023-04-29T02:25:39.816Z,94872.00
2023-04-29T02:26:39.854Z,94878.00
2023-04-29T02:27:39.888Z,94880.00
2023-04-29T02:28:39.916Z,94882.00
2023-04-29T02:29:40.035Z,94884.00
2023-04-29T02:30:40.030Z,94884.00
2023-04-29T02:31:40.109Z,94884.00
2023-04-29T02:32:40.127Z,94882.00
2023-04-29T02:33:40.203Z,94880.00
2023-04-29T02:34:40.282Z,94876.00
2023-04-29T02:35:40.309Z,94878.00
2023-04-29T02:36:40.374Z,94878.00
2023-04-29T02:37:40.499Z,94876.00
2023-04-29T02:38:40.431Z,94876.00
2023-04-29T02:39:40.479Z,94872.00
2023-04-29T02:40:40.426Z,94874.00
2023-04-29T02:41:40.413Z,94878.00
2023-04-29T02:42:40.394Z,94882.00
2023-04-29T02:43:40.379Z,94882.00
2023-04-29T02:44:40.396Z,94884.00
2023-04-29T02:45:40.431Z,94884.00
2023-04-29T02:46:40.381Z,94882.00
2023-04-29T02:47:40.496Z,94878.00
2023-04-29T02:48:40.374Z,94880.00
2023-04-29T02:49:40.404Z,94880.00
2023-04-29T02:50:40.426Z,94880.00
2023-04-29T02:51:40.427Z,94876.00
2023-04-29T02:52:40.519Z,94876.00
2023-04-29T02:53:40.467Z,94874.00
2023-04-29T02:54:40.555Z,94876.00
2023-04-29T02:55:40.526Z,94878.00
2023-04-29T02:56:40.556Z,94882.00
2023-04-29T02:57:40.575Z,94884.00
2023-04-29T02:58:40.580Z,94888.00
2023-04-29T02:59:40.619Z,94899.00
2023-04-29T03:00:40.645Z,94899.00
2023-04-29T03:01:40.770Z,94901.00
2023-04-29T03:02:40.786Z,94901.00
2023-04-29T03:03:40.811Z,94901.00
2023-04-29T03:04:40.717Z,94899.00
2023-04-29T03:05:40.733Z,94899.00
2023-04-29T03:06:40.751Z,94901.00
2023-04-29T03:07:40.754Z,94901.00
2023-04-29T03:08:40.776Z,94903.00
2023-04-29T03:09:40.797Z,94901.00
2023-04-29T03:10:41.825Z,94899.00
2023-04-29T03:11:40.822Z,94892.00
2023-04-29T03:12:40.849Z,94892.00
2023-04-29T03:13:40.838Z,94892.00
2023-04-29T03:14:40.858Z,94892.00
2023-04-29T03:15:40.839Z,94890.00
2023-04-29T03:16:40.935Z,94892.00
2023-04-29T03:17:40.904Z,94890.00
2023-04-29T03:18:40.878Z,94890.00
2023-04-29T03:19:40.903Z,94888.00
2023-04-29T03:20:40.922Z,94886.00
2023-04-29T03:21:40.930Z,94884.00
2023-04-29T03:22:40.970Z,94880.00
2023-04-29T03:23:40.978Z,94880.00
2023-04-29T03:24:40.946Z,94882.00
2023-04-29T03:25:41.048Z,94880.00
2023-04-29T03:26:41.006Z,94876.00
2023-04-29T03:27:41.006Z,94874.00
2023-04-29T03:28:41.026Z,94870.00
2023-04-29T03:29:41.013Z,94870.00
2023-04-29T03:30:41.037Z,94874.00
2023-04-29T03:31:41.084Z,94870.00
2023-04-29T03:32:41.073Z,94876.00
2023-04-29T03:33:41.094Z,94876.00
2023-04-29T03:34:41.070Z,94876.00
2023-04-29T03:35:41.066Z,94876.00
2023-04-29T03:36:41.094Z,94878.00
2023-04-29T03:37:41.141Z,94878.00
2023-04-29T03:38:42.949Z,94880.00
2023-04-29T03:39:41.288Z,94878.00
2023-04-29T03:40:41.173Z,94880.00
2023-04-29T03:41:41.219Z,94878.00
2023-04-29T03:42:41.218Z,94878.00
2023-04-29T03:43:41.225Z,94876.00
2023-04-29T03:44:41.216Z,94878.00
2023-04-29T03:45:41.262Z,94876.00
2023-04-29T03:46:41.428Z,94876.00
2023-04-29T03:47:41.334Z,94874.00
2023-04-29T03:48:41.329Z,94874.00
2023-04-29T03:49:41.366Z,94872.00
2023-04-29T03:50:41.401Z,94872.00
2023-04-29T03:51:41.404Z,94866.00
2023-04-29T03:52:41.458Z,94866.00
2023-04-29T03:53:41.440Z,94864.00
2023-04-29T03:54:41.466Z,94864.00
2023-04-29T03:55:41.503Z,94868.00
2023-04-29T03:56:41.529Z,94868.00
2023-04-29T03:57:42.627Z,94870.00
2023-04-29T03:58:41.551Z,94870.00
2023-04-29T03:59:41.524Z,94872.00
2023-04-29T04:00:41.556Z,94876.00
2023-04-29T04:01:41.610Z,94876.00
2023-04-29T04:02:41.740Z,94874.00
2023-04-29T04:03:41.785Z,94874.00
2023-04-29T04:04:41.874Z,94876.00
2023-04-29T04:05:41.770Z,94874.00
2023-04-29T04:06:41.805Z,94872.00
2023-04-29T04:07:41.839Z,94872.00
2023-04-29T04:08:42.382Z,94872.00
2023-04-29T04:09:42.007Z,94870.00
2023-04-29T04:10:41.952Z,94870.00
2023-04-29T04:11:41.955Z,94866.00
2023-04-29T04:12:44.142Z,94870.00
2023-04-29T04:13:42.007Z,94864.00
2023-04-29T04:14:41.998Z,94868.00
2023-04-29T04:15:42.062Z,94868.00
2023-04-29T04:16:42.258Z,94870.00
2023-04-29T04:17:42.128Z,94874.00
2023-04-29T04:18:42.040Z,94874.00
2023-04-29T04:19:42.033Z,94874.00
2023-04-29T04:20:42.174Z,94872.00
2023-04-29T04:21:42.110Z,94874.00
2023-04-29T04:22:42.128Z,94872.00
2023-04-29T04:23:42.136Z,94874.00
2023-04-29T04:24:42.148Z,94876.00
2023-04-29T04:25:42.183Z,94876.00
2023-04-29T04:26:42.214Z,94876.00
2023-04-29T04:27:42.202Z,94880.00
2023-04-29T04:28:42.225Z,94886.00
2023-04-29T04:29:42.226Z,94888.00
2023-04-29T04:30:42.270Z,94890.00
2023-04-29T04:31:43.026Z,94899.00
2023-04-29T04:32:42.273Z,94892.00
2023-04-29T04:33:42.237Z,94899.00
2023-04-29T04:34:42.273Z,94903.00
2023-04-29T04:35:42.289Z,94903.00
2023-04-29T04:36:42.263Z,94905.00
2023-04-29T04:37:42.285Z,94903.00
2023-04-29T04:38:42.284Z,94907.00
2023-04-29T04:39:42.362Z,94905.00
2023-04-29T04:40:42.263Z,94905.00
2023-04-29T04:41:42.260Z,94907.00
2023-04-29T04:42:42.307Z,94905.00
2023-04-29T04:43:42.327Z,94907.00
2023-04-29T04:44:42.373Z,94905.00
2023-04-29T04:45:42.362Z,94905.00
2023-04-29T04:46:42.298Z,94903.00
2023-04-29T04:47:42.346Z,94901.00
2023-04-29T04:48:42.319Z,94903.00
2023-04-29T04:49:42.279Z,94903.00
2023-04-29T04:50:42.331Z,94903.00
2023-04-29T04:51:42.278Z,94905.00
2023-04-29T04:52:42.293Z,94903.00
2023-04-29T04:53:42.303Z,94901.00
2023-04-29T04:54:42.321Z,94899.00
2023-04-29T04:55:42.344Z,94901.00
2023-04-29T04:56:42.297Z,94892.00
2023-04-29T04:57:42.358Z,94892.00
2023-04-29T04:58:42.344Z,94899.00
2023-04-29T04:59:42.311Z,94903.00
2023-04-29T05:00:42.326Z,94907.00
2023-04-29T05:01:42.386Z,94905.00
2023-04-29T05:02:42.506Z,94903.00
2023-04-29T05:03:42.538Z,94903.00
2023-04-29T05:04:42.389Z,94903.00
2023-04-29T05:05:42.398Z,94901.00
2023-04-29T05:06:42.396Z,94903.00
2023-04-29T05:07:42.409Z,94903.00
2023-04-29T05:08:42.385Z,94903.00
2023-04-29T05:09:42.376Z,94903.00
2023-04-29T05:10:42.404Z,94903.00
2023-04-29T05:11:42.404Z,94903.00
2023-04-29T05:12:42.405Z,94901.00
2023-04-29T05:13:42.413Z,94901.00
2023-04-29T05:14:42.410Z,94903.00
2023-04-29T05:15:42.941Z,94903.00
2023-04-29T05:16:42.427Z,94903.00
2023-04-29T05:17:42.434Z,94903.00
2023-04-29T05:18:42.455Z,94901.00
2023-04-29T05:19:42.459Z,94905.00
2023-04-29T05:20:42.413Z,94905.00
2023-04-29T05:21:42.467Z,94903.00
2023-04-29T05:22:42.451Z,94905.00
2023-04-29T05:23:42.498Z,94907.00
2023-04-29T05:24:42.506Z,94909.00
2023-04-29T05:25:42.512Z,94905.00
2023-04-29T05:26:42.509Z,94907.00
2023-04-29T05:27:42.518Z,94907.00
2023-04-29T05:28:42.550Z,94907.00
2023-04-29T05:29:42.548Z,94905.00
2023-04-29T05:30:42.548Z,94905.00
2023-04-29T05:31:42.547Z,94909.00
2023-04-29T05:32:42.579Z,94907.00
2023-04-29T05:33:42.539Z,94907.00
2023-04-29T05:34:42.574Z,94911.00
2023-04-29T05:35:42.546Z,94911.00
2023-04-29T05:36:42.533Z,94917.00
2023-04-29T05:37:42.547Z,94919.00
2023-04-29T05:38:42.534Z,94919.00
2023-04-29T05:39:42.590Z,94915.00
2023-04-29T05:40:42.598Z,94917.00
2023-04-29T05:41:42.608Z,94913.00
2023-04-29T05:42:42.632Z,94915.00
2023-04-29T05:43:42.609Z,94909.00
2023-04-29T05:44:42.690Z,94905.00
2023-04-29T05:45:42.700Z,94903.00
2023-04-29T05:46:42.805Z,94903.00
2023-04-29T05:47:42.794Z,94905.00
2023-04-29T05:48:42.768Z,94903.00
2023-04-29T05:49:42.778Z,94907.00
2023-04-29T05:50:42.798Z,94907.00
2023-04-29T05:51:42.786Z,94907.00
2023-04-29T05:52:42.806Z,94911.00
2023-04-29T05:53:42.798Z,94911.00
2023-04-29T05:54:42.831Z,94911.00
2023-04-29T05:55:42.841Z,94909.00
2023-04-29T05:56:42.905Z,94907.00
2023-04-29T05:57:42.929Z,94907.00
2023-04-29T05:58:42.944Z,94903.00
2023-04-29T05:59:42.946Z,94905.00
2023-04-29T06:00:42.943Z,94903.00
2023-04-29T06:01:42.969Z,94905.00
2023-04-29T06:02:54.683Z,94907.00
2023-04-29T06:03:44.126Z,94909.00
2023-04-29T06:04:43.095Z,94911.00
2023-04-29T06:05:43.262Z,94911.00
2023-04-29T06:06:42.932Z,94913.00
2023-04-29T06:07:42.958Z,94913.00
2023-04-29T06:08:42.938Z,94913.00
2023-04-29T06:09:42.928Z,94913.00
2023-04-29T06:10:42.934Z,94917.00
2023-04-29T06:11:42.905Z,94917.00
2023-04-29T06:12:42.916Z,94919.00
2023-04-29T06:13:42.906Z,94917.00
2023-04-29T06:14:42.895Z,94915.00
2023-04-29T06:15:42.954Z,94915.00
2023-04-29T06:16:42.883Z,94917.00
2023-04-29T06:17:42.922Z,94919.00
2023-04-29T06:18:42.872Z,94917.00
2023-04-29T06:19:42.866Z,94921.00
2023-04-29T06:20:42.897Z,94919.00
2023-04-29T06:21:42.835Z,94925.00
2023-04-29T06:22:42.844Z,94921.00
2023-04-29T06:23:42.894Z,94925.00
2023-04-29T06:24:42.958Z,94925.00
2023-04-29T06:25:43.023Z,94923.00
2023-04-29T06:26:43.013Z,94923.00
2023-04-29T06:27:43.050Z,94925.00
2023-04-29T06:28:43.083Z,94925.00
2023-04-29T06:29:43.100Z,94925.00
2023-04-29T06:30:43.147Z,94929.00
2023-04-29T06:31:43.213Z,94929.00
2023-04-29T06:32:43.203Z,94931.00
2023-04-29T06:33:43.216Z,94929.00
2023-04-29T06:34:43.234Z,94931.00
2023-04-29T06:35:43.289Z,94927.00
2023-04-29T06:36:43.296Z,94927.00
2023-04-29T06:37:43.357Z,94929.00
2023-04-29T06:38:43.377Z,94927.00
2023-04-29T06:39:43.426Z,94927.00
2023-04-29T06:40:43.504Z,94927.00
2023-04-29T06:41:43.499Z,94923.00
2023-04-29T06:42:43.586Z,94921.00
2023-04-29T06:43:43.645Z,94921.00
2023-04-29T06:44:43.685Z,94921.00
2023-04-29T06:45:43.724Z,94921.00
2023-04-29T06:46:43.829Z,94921.00
2023-04-29T06:47:43.907Z,94921.00
2023-04-29T06:48:43.910Z,94915.00
2023-04-29T06:49:43.949Z,94917.00
2023-04-29T06:50:43.994Z,94919.00
2023-04-29T06:51:44.099Z,94915.00
2023-04-29T06:52:44.140Z,94919.00
2023-04-29T06:53:44.189Z,94919.00
2023-04-29T06:54:44.269Z,94921.00
2023-04-29T06:55:44.331Z,94915.00
2023-04-29T06:56:44.370Z,94915.00
2023-04-29T06:57:44.460Z,94913.00
2023-04-29T06:58:44.516Z,94915.00
2023-04-29T06:59:44.567Z,94913.00
2023-04-29T07:00:44.690Z,94915.00
2023-04-29T07:01:46.101Z,94913.00
2023-04-29T07:02:44.770Z,94915.00
2023-04-29T07:03:44.910Z,94917.00
2023-04-29T07:04:44.938Z,94917.00
2023-04-29T07:05:44.931Z,94915.00
2023-04-29T07:06:44.987Z,94917.00
2023-04-29T07:07:45.035Z,94917.00
2023-04-29T07:08:45.097Z,94915.00
2023-04-29T07:09:45.217Z,94915.00
2023-04-29T07:10:45.218Z,94915.00
2023-04-29T07:11:45.257Z,94913.00
2023-04-29T07:12:45.413Z,94913.00
2023-04-29T07:13:45.336Z,94911.00
2023-04-29T07:14:45.443Z,94913.00
2023-04-29T07:15:45.456Z,94913.00
2023-04-29T07:16:45.650Z,94911.00
2023-04-29T07:17:45.608Z,94915.00
2023-04-29T07:18:45.612Z,94915.00
2023-04-29T07:19:45.703Z,94917.00
2023-04-29T07:20:45.775Z,94915.00
2023-04-29T07:21:45.794Z,94915.00
2023-04-29T07:22:45.836Z,94913.00
2023-04-29T07:23:45.916Z,94909.00
2023-04-29T07:24:45.964Z,94909.00
2023-04-29T07:25:46.024Z,94911.00
2023-04-29T07:26:46.065Z,94911.00
2023-04-29T07:27:46.128Z,94909.00
2023-04-29T07:28:46.182Z,94909.00
2023-04-29T07:29:46.264Z,94909.00
2023-04-29T07:30:46.333Z,94907.00
2023-04-29T07:31:46.351Z,94907.00
2023-04-29T07:32:46.474Z,94907.00
2023-04-29T07:33:46.479Z,94907.00
2023-04-29T07:34:46.505Z,94905.00
2023-04-29T07:35:46.542Z,94903.00
2023-04-29T07:36:46.606Z,94903.00
2023-04-29T07:37:46.642Z,94901.00
2023-04-29T07:38:46.679Z,94901.00
2023-04-29T07:39:46.714Z,94901.00
2023-04-29T07:40:46.792Z,94892.00
2023-04-29T07:41:46.834Z,94892.00
2023-04-29T07:42:46.864Z,94890.00
2023-04-29T07:43:46.953Z,94888.00
2023-04-29T07:44:46.983Z,94888.00
2023-04-29T07:45:47.038Z,94884.00
2023-04-29T07:46:47.105Z,94882.00
2023-04-29T07:47:47.664Z,94882.00
2023-04-29T07:48:47.158Z,94880.00
2023-04-29T07:49:47.201Z,94880.00
2023-04-29T07:50:47.267Z,94884.00
2023-04-29T07:51:47.325Z,94888.00
2023-04-29T07:52:47.361Z,94886.00
2023-04-29T07:53:47.425Z,94884.00
2023-04-29T07:54:47.481Z,94882.00
2023-04-29T07:55:47.537Z,94882.00
2023-04-29T07:56:47.527Z,94880.00
2023-04-29T07:57:47.629Z,94880.00
2023-04-29T07:58:47.615Z,94878.00
2023-04-29T07:59:47.679Z,94878.00
2023-04-29T08:00:47.707Z,94878.00
2023-04-29T08:01:47.746Z,94878.00
2023-04-29T08:02:47.893Z,94876.00
2023-04-29T08:03:47.977Z,94874.00
2023-04-29T08:04:48.132Z,94876.00
2023-04-29T08:05:47.907Z,94876.00
2023-04-29T08:06:47.923Z,94876.00
2023-04-29T08:07:47.998Z,94872.00
2023-04-29T08:08:47.994Z,94876.00
2023-04-29T08:09:48.041Z,94874.00
2023-04-29T08:10:48.089Z,94876.00
2023-04-29T08:11:48.082Z,94874.00
2023-04-29T08:12:48.160Z,94872.00
2023-04-29T08:13:48.218Z,94872.00
2023-04-29T08:14:48.220Z,94872.00
2023-04-29T08:15:48.277Z,94874.00
2023-04-29T08:16:48.299Z,94872.00
2023-04-29T08:17:48.375Z,94870.00
2023-04-29T08:18:48.324Z,94870.00
2023-04-29T08:19:48.372Z,94866.00
2023-04-29T08:20:48.405Z,94868.00
2023-04-29T08:21:48.448Z,94864.00
2023-04-29T08:22:48.448Z,94866.00
2023-04-29T08:23:48.488Z,94862.00
2023-04-29T08:24:48.519Z,94858.00
2023-04-29T08:25:48.543Z,94860.00
2023-04-29T08:26:48.548Z,94858.00
2023-04-29T08:27:48.585Z,94856.00
2023-04-29T08:28:48.591Z,94858.00
2023-04-29T08:29:48.634Z,94862.00
2023-04-29T08:30:48.666Z,94860.00
2023-04-29T08:31:48.687Z,94860.00
2023-04-29T08:32:48.762Z,94858.00
2023-04-29T08:33:48.695Z,94860.00
2023-04-29T08:34:48.747Z,94862.00
2023-04-29T08:35:48.778Z,94862.00
2023-04-29T08:36:48.791Z,94862.00
2023-04-29T08:37:48.833Z,94858.00
2023-04-29T08:38:48.849Z,94860.00
2023-04-29T08:39:48.840Z,94860.00
2023-04-29T08:40:48.889Z,94860.00
2023-04-29T08:41:49.052Z,94860.00
2023-04-29T08:42:49.253Z,94858.00
2023-04-29T08:43:48.967Z,94860.00
2023-04-29T08:44:48.926Z,94856.00
2023-04-29T08:45:49.013Z,94856.00
2023-04-29T08:46:48.997Z,94856.00
2023-04-29T08:47:49.092Z,94858.00
2023-04-29T08:48:49.084Z,94854.00
2023-04-29T08:49:49.107Z,94854.00
2023-04-29T08:50:49.086Z,94856.00
2023-04-29T08:51:49.128Z,94854.00
2023-04-29T08:52:49.136Z,94850.00
2023-04-29T08:53:49.101Z,94848.00
2023-04-29T08:54:50.111Z,94843.00
2023-04-29T08:55:49.408Z,94843.00
2023-04-29T08:56:49.169Z,94845.00
2023-04-29T08:57:49.279Z,94848.00
2023-04-29T08:58:49.226Z,94846.00
2023-04-29T08:59:49.215Z,94845.00
2023-04-29T09:00:49.266Z,94846.00
2023-04-29T09:01:49.240Z,94845.00
2023-04-29T09:02:49.272Z,94841.00
2023-04-29T09:03:49.402Z,94839.00
2023-04-29T09:04:49.309Z,94841.00
2023-04-29T09:05:49.282Z,94837.00
2023-04-29T09:06:49.279Z,94837.00
2023-04-29T09:07:49.295Z,94835.00
2023-04-29T09:08:49.317Z,94829.00
2023-04-29T09:09:49.334Z,94833.00
2023-04-29T09:10:49.322Z,94831.00
2023-04-29T09:11:49.333Z,94829.00
2023-04-29T09:12:49.335Z,94829.00
2023-04-29T09:13:49.364Z,94825.00
2023-04-29T09:14:49.383Z,94829.00
2023-04-29T09:15:49.379Z,94827.00
2023-04-29T09:16:49.515Z,94823.00
2023-04-29T09:17:49.415Z,94823.00
2023-04-29T09:18:49.470Z,94823.00
2023-04-29T09:19:49.429Z,94823.00
2023-04-29T09:20:49.471Z,94819.00
2023-04-29T09:21:49.484Z,94823.00
2023-04-29T09:22:49.461Z,94825.00
2023-04-29T09:23:49.485Z,94821.00
2023-04-29T09:24:49.494Z,94821.00
2023-04-29T09:25:49.520Z,94819.00
2023-04-29T09:26:51.791Z,94817.00
2023-04-29T09:27:49.547Z,94819.00
2023-04-29T09:28:49.563Z,94819.00
2023-04-29T09:29:49.557Z,94815.00
2023-04-29T09:30:49.600Z,94815.00
2023-04-29T09:31:49.624Z,94813.00
2023-04-29T09:32:49.670Z,94811.00
2023-04-29T09:33:49.615Z,94807.00
2023-04-29T09:34:49.627Z,94805.00
2023-04-29T09:35:49.623Z,94803.00
2023-04-29T09:36:49.680Z,94805.00
2023-04-29T09:37:49.669Z,94805.00
2023-04-29T09:38:49.749Z,94805.00
2023-04-29T09:39:49.763Z,94805.00
2023-04-29T09:40:58.821Z,94803.00
2023-04-29T09:41:50.717Z,94803.00
2023-04-29T09:42:49.779Z,94805.00
2023-04-29T09:43:49.716Z,94801.00
2023-04-29T09:44:49.725Z,94801.00
2023-04-29T09:45:49.767Z,94801.00
2023-04-29T09:46:49.696Z,94801.00
2023-04-29T09:47:49.729Z,94801.00
2023-04-29T09:48:49.702Z,94801.00
2023-04-29T09:49:49.707Z,94801.00
2023-04-29T09:50:49.690Z,94801.00
2023-04-29T09:51:49.687Z,94803.00
2023-04-29T09:52:49.663Z,94799.00
2023-04-29T09:53:49.691Z,94799.00
2023-04-29T09:54:49.655Z,94799.00
2023-04-29T09:55:49.662Z,94799.00
2023-04-29T09:56:49.645Z,94796.00
2023-04-29T09:57:49.655Z,94799.00
2023-04-29T09:58:49.672Z,94796.00
2023-04-29T09:59:49.643Z,94794.00
2023-04-29T10:00:49.621Z,94796.00
2023-04-29T10:01:49.694Z,94792.00
2023-04-29T10:02:49.681Z,94790.00
2023-04-29T10:03:49.640Z,94792.00
2023-04-29T10:04:49.647Z,94790.00
2023-04-29T10:05:49.601Z,94786.00
2023-04-29T10:06:49.649Z,94786.00
2023-04-29T10:07:49.622Z,94786.00
2023-04-29T10:08:49.631Z,94788.00
2023-04-29T10:09:49.655Z,94786.00
2023-04-29T10:10:49.694Z,94784.00
2023-04-29T10:11:49.710Z,94788.00
2023-04-29T10:12:49.725Z,94788.00
2023-04-29T10:13:49.702Z,94786.00
2023-04-29T10:14:49.729Z,94784.00
2023-04-29T10:15:49.770Z,94784.00
2023-04-29T10:16:49.799Z,94784.00
2023-04-29T10:17:49.814Z,94786.00
2023-04-29T10:18:49.800Z,94786.00
2023-04-29T10:19:49.803Z,94784.00
2023-04-29T10:20:49.795Z,94784.00
2023-04-29T10:21:49.999Z,94784.00
2023-04-29T10:22:49.901Z,94780.00
2023-04-29T10:23:49.906Z,94778.00
2023-04-29T10:24:49.914Z,94774.00
2023-04-29T10:25:49.889Z,94770.00
2023-04-29T10:26:49.907Z,94770.00
2023-04-29T10:27:49.936Z,94764.00
2023-04-29T10:28:50.029Z,94760.00
2023-04-29T10:29:50.083Z,94756.00
2023-04-29T10:30:50.076Z,94758.00
2023-04-29T10:31:50.197Z,94756.00
2023-04-29T10:32:52.037Z,94756.00
2023-04-29T10:33:50.075Z,94754.00
2023-04-29T10:34:50.092Z,94752.00
2023-04-29T10:35:50.033Z,94748.00
2023-04-29T10:36:50.110Z,94750.00
2023-04-29T10:37:50.002Z,94750.00
2023-04-29T10:38:49.999Z,94750.00
2023-04-29T10:39:50.079Z,94750.00
2023-04-29T10:40:50.015Z,94750.00
2023-04-29T10:41:49.991Z,94746.00
2023-04-29T10:42:50.018Z,94746.00
2023-04-29T10:43:49.976Z,94741.00
2023-04-29T10:44:49.975Z,94741.00
2023-04-29T10:45:49.974Z,94741.00
2023-04-29T10:46:50.012Z,94737.00
2023-04-29T10:47:49.967Z,94735.00
2023-04-29T10:48:49.965Z,94731.00
2023-04-29T10:49:49.959Z,94733.00
2023-04-29T10:50:50.035Z,94729.00
2023-04-29T10:51:49.964Z,94729.00
2023-04-29T10:52:49.907Z,94727.00
2023-04-29T10:53:49.908Z,94725.00
2023-04-29T10:54:49.969Z,94719.00
2023-04-29T10:55:49.909Z,94723.00
2023-04-29T10:56:49.941Z,94719.00
2023-04-29T10:57:49.887Z,94719.00
2023-04-29T10:58:49.904Z,94717.00
2023-04-29T10:59:49.890Z,94715.00
2023-04-29T11:00:50.014Z,94715.00
2023-04-29T11:01:49.913Z,94717.00
2023-04-29T11:02:49.986Z,94715.00
2023-04-29T11:03:50.027Z,94715.00
2023-04-29T11:04:50.008Z,94713.00
2023-04-29T11:05:49.856Z,94711.00
2023-04-29T11:06:49.866Z,94709.00
2023-04-29T11:07:49.818Z,94713.00
2023-04-29T11:08:49.877Z,94709.00
2023-04-29T11:09:49.824Z,94705.00
2023-04-29T11:10:49.817Z,94707.00
2023-04-29T11:11:49.876Z,94701.00
2023-04-29T11:12:49.825Z,94703.00
2023-04-29T11:13:49.846Z,94701.00
2023-04-29T11:14:49.816Z,94700.00
2023-04-29T11:15:49.811Z,94700.00
2023-04-29T11:16:49.854Z,94698.00
2023-04-29T11:17:49.850Z,94698.00
2023-04-29T11:18:49.758Z,94698.00
2023-04-29T11:19:49.769Z,94698.00
2023-04-29T11:20:49.735Z,94700.00
2023-04-29T11:21:49.760Z,94700.00
2023-04-29T11:22:49.742Z,94698.00
2023-04-29T11:23:49.727Z,94701.00
2023-04-29T11:24:49.752Z,94703.00
2023-04-29T11:25:49.723Z,94703.00
2023-04-29T11:26:49.732Z,94703.00
2023-04-29T11:27:49.696Z,94707.00
2023-04-29T11:28:49.726Z,94711.00
2023-04-29T11:29:49.694Z,94715.00
2023-04-29T11:30:49.696Z,94715.00
2023-04-29T11:31:49.794Z,94717.00
2023-04-29T11:32:49.721Z,94719.00
2023-04-29T11:33:49.657Z,94721.00
2023-04-29T11:34:49.677Z,94725.00
2023-04-29T11:35:49.677Z,94733.00
2023-04-29T11:36:49.629Z,94735.00
2023-04-29T11:37:49.661Z,94735.00
2023-04-29T11:38:49.669Z,94725.00
2023-04-29T11:39:49.631Z,94729.00
2023-04-29T11:40:49.638Z,94727.00
2023-04-29T11:41:51.235Z,94733.00
2023-04-29T11:42:49.694Z,94733.00
2023-04-29T11:43:49.620Z,94733.00
2023-04-29T11:44:49.585Z,94729.00